WIA871 TLPC-TVSA
Flight info
| Callsign | WIA871 |
|---|---|
| Flight time | 0h 22m |
| Altitude | 12000 |
| Route | SLU DCT BNE DCT ANATA |
| Aircraft | AT46/M-SDFGIRY/S |
Departure
| Time | 2026-05-07 20:55 |
|---|---|
| Airport | George F. L. Charles Airport (TLPC) |
Arrival
| Time | 2026-05-07 21:18 |
|---|---|
| Airport | Argyle International Airport (TVSA) |
| Time | Latitude | Longitude | Altitude | Speed | Heading |
|---|---|---|---|---|---|
| 2026-05-07 20:24 | 14.02009 | -60.99598 | 11 ft | 0 kts | 144° |
| 2026-05-07 20:51 | 14.02008 | -60.99597 | 11 ft | 2 kts | 144° |
| 2026-05-07 20:51 | 14.01988 | -60.99600 | 9 ft | 7 kts | 194° |
| 2026-05-07 20:51 | 14.01981 | -60.99602 | 8 ft | 0 kts | 199° |
| 2026-05-07 20:52 | 14.01966 | -60.99607 | 6 ft | 10 kts | 201° |
| 2026-05-07 20:52 | 14.01903 | -60.99678 | 4 ft | 16 kts | 249° |
| 2026-05-07 20:53 | 14.01872 | -60.99792 | 6 ft | 17 kts | 255° |
| 2026-05-07 20:53 | 14.01839 | -60.99918 | 6 ft | 19 kts | 256° |
| 2026-05-07 20:53 | 14.01793 | -61.00050 | 6 ft | 19 kts | 241° |
| 2026-05-07 20:53 | 14.01778 | -61.00114 | 7 ft | 1 kts | 353° |
| 2026-05-07 20:54 | 14.01794 | -61.00097 | 7 ft | 8 kts | 85° |
| 2026-05-07 20:54 | 14.01796 | -61.00081 | 6 ft | 0 kts | 76° |
| 2026-05-07 20:54 | 14.01801 | -61.00062 | 6 ft | 22 kts | 76° |
| 2026-05-07 20:54 | 14.01917 | -60.99622 | 5 ft | 103 kts | 75° |
| 2026-05-07 20:55 | 14.02150 | -60.98812 | 354 ft | 131 kts | 70° |
| 2026-05-07 20:55 | 14.02812 | -60.98051 | 753 ft | 161 kts | 33° |
| 2026-05-07 20:55 | 14.03971 | -60.97831 | 1233 ft | 185 kts | 356° |
| 2026-05-07 20:55 | 14.05137 | -60.98480 | 1751 ft | 202 kts | 313° |
| 2026-05-07 20:56 | 14.05633 | -60.99808 | 2522 ft | 200 kts | 274° |
| 2026-05-07 20:56 | 14.05223 | -61.01171 | 3183 ft | 205 kts | 234° |
| 2026-05-07 20:56 | 14.04155 | -61.02042 | 3941 ft | 193 kts | 202° |
| 2026-05-07 20:56 | 14.02844 | -61.02366 | 4592 ft | 197 kts | 183° |
| 2026-05-07 20:57 | 14.01458 | -61.02291 | 5090 ft | 205 kts | 174° |
| 2026-05-07 20:57 | 14.00001 | -61.02126 | 5514 ft | 210 kts | 172° |
| 2026-05-07 20:57 | 13.98554 | -61.01915 | 5881 ft | 212 kts | 171° |
| 2026-05-07 20:57 | 13.97057 | -61.01655 | 6090 ft | 224 kts | 170° |
| 2026-05-07 20:58 | 13.95545 | -61.01339 | 6513 ft | 217 kts | 167° |
| 2026-05-07 20:58 | 13.94073 | -61.00978 | 6830 ft | 219 kts | 165° |
| 2026-05-07 20:58 | 13.92574 | -61.00641 | 7132 ft | 221 kts | 169° |
| 2026-05-07 20:58 | 13.91058 | -61.00404 | 7500 ft | 220 kts | 172° |
| 2026-05-07 20:59 | 13.89517 | -61.00249 | 7774 ft | 223 kts | 175° |
| 2026-05-07 20:59 | 13.87993 | -61.00143 | 8228 ft | 217 kts | 175° |
| 2026-05-07 20:59 | 13.86495 | -61.00028 | 8623 ft | 215 kts | 175° |
| 2026-05-07 20:59 | 13.84969 | -60.99919 | 8783 ft | 225 kts | 175° |
| 2026-05-07 21:00 | 13.83393 | -60.99808 | 9096 ft | 224 kts | 175° |
| 2026-05-07 21:00 | 13.81889 | -60.99718 | 9546 ft | 213 kts | 176° |
| 2026-05-07 21:00 | 13.80404 | -60.99670 | 9847 ft | 217 kts | 177° |
| 2026-05-07 21:00 | 13.78868 | -60.99671 | 10045 ft | 225 kts | 180° |
| 2026-05-07 21:01 | 13.77290 | -60.99731 | 10272 ft | 227 kts | 184° |
| 2026-05-07 21:01 | 13.75736 | -60.99938 | 10627 ft | 225 kts | 187° |
| 2026-05-07 21:01 | 13.74183 | -61.00177 | 10878 ft | 227 kts | 186° |
| 2026-05-07 21:01 | 13.72606 | -61.00394 | 11105 ft | 230 kts | 187° |
| 2026-05-07 21:02 | 13.71001 | -61.00648 | 11270 ft | 236 kts | 188° |
| 2026-05-07 21:02 | 13.69377 | -61.00910 | 11543 ft | 236 kts | 187° |
| 2026-05-07 21:02 | 13.67733 | -61.01090 | 11762 ft | 239 kts | 183° |
| 2026-05-07 21:02 | 13.66050 | -61.01267 | 11853 ft | 247 kts | 185° |
| 2026-05-07 21:03 | 13.64353 | -61.01457 | 12132 ft | 244 kts | 185° |
| 2026-05-07 21:03 | 13.62640 | -61.01632 | 12075 ft | 255 kts | 184° |
| 2026-05-07 21:03 | 13.60853 | -61.01789 | 12052 ft | 259 kts | 183° |
| 2026-05-07 21:03 | 13.59049 | -61.01919 | 12003 ft | 263 kts | 183° |
| 2026-05-07 21:04 | 13.57189 | -61.02009 | 11789 ft | 273 kts | 179° |
| 2026-05-07 21:04 | 13.55301 | -61.01962 | 11816 ft | 268 kts | 176° |
| 2026-05-07 21:04 | 13.53466 | -61.01882 | 11995 ft | 260 kts | 175° |
| 2026-05-07 21:04 | 13.51661 | -61.01787 | 11855 ft | 268 kts | 176° |
| 2026-05-07 21:05 | 13.49775 | -61.01722 | 11697 ft | 272 kts | 178° |
| 2026-05-07 21:05 | 13.47914 | -61.01836 | 11700 ft | 267 kts | 192° |
| 2026-05-07 21:05 | 13.46138 | -61.02296 | 11872 ft | 259 kts | 193° |
| 2026-05-07 21:05 | 13.44395 | -61.02689 | 11958 ft | 256 kts | 194° |
| 2026-05-07 21:06 | 13.42732 | -61.03357 | 11983 ft | 256 kts | 199° |
| 2026-05-07 21:06 | 13.41033 | -61.03891 | 11993 ft | 256 kts | 198° |
| 2026-05-07 21:06 | 13.39340 | -61.04504 | 11998 ft | 260 kts | 198° |
| 2026-05-07 21:06 | 13.37602 | -61.05046 | 11955 ft | 263 kts | 194° |
| 2026-05-07 21:07 | 13.35786 | -61.05428 | 11804 ft | 269 kts | 187° |
| 2026-05-07 21:07 | 13.33904 | -61.05677 | 11577 ft | 276 kts | 185° |
| 2026-05-07 21:07 | 13.31971 | -61.05891 | 11335 ft | 282 kts | 185° |
| 2026-05-07 21:07 | 13.30017 | -61.06122 | 11101 ft | 284 kts | 186° |
| 2026-05-07 21:08 | 13.28055 | -61.06387 | 10856 ft | 284 kts | 186° |
| 2026-05-07 21:08 | 13.26100 | -61.06649 | 10622 ft | 283 kts | 186° |
| 2026-05-07 21:08 | 13.24152 | -61.06911 | 10391 ft | 282 kts | 186° |
| 2026-05-07 21:08 | 13.22213 | -61.07176 | 10156 ft | 280 kts | 186° |
| 2026-05-07 21:09 | 13.20285 | -61.07446 | 9929 ft | 279 kts | 187° |
| 2026-05-07 21:09 | 13.18395 | -61.07706 | 9661 ft | 278 kts | 186° |
| 2026-05-07 21:09 | 13.16467 | -61.07976 | 9271 ft | 280 kts | 187° |
| 2026-05-07 21:09 | 13.14574 | -61.08236 | 8908 ft | 281 kts | 186° |
| 2026-05-07 21:10 | 13.12636 | -61.08494 | 8537 ft | 280 kts | 187° |
| 2026-05-07 21:10 | 13.10700 | -61.08752 | 8170 ft | 280 kts | 186° |
| 2026-05-07 21:10 | 13.08770 | -61.09009 | 7807 ft | 278 kts | 187° |
| 2026-05-07 21:10 | 13.06855 | -61.09267 | 7450 ft | 277 kts | 187° |
| 2026-05-07 21:11 | 13.04947 | -61.09519 | 7093 ft | 276 kts | 187° |
| 2026-05-07 21:11 | 13.03035 | -61.09773 | 6745 ft | 276 kts | 187° |
| 2026-05-07 21:11 | 12.99241 | -61.10279 | 6015 ft | 273 kts | 187° |
| 2026-05-07 21:12 | 12.97378 | -61.10528 | 5657 ft | 273 kts | 186° |
| 2026-05-07 21:12 | 12.95545 | -61.10934 | 5289 ft | 270 kts | 204° |
| 2026-05-07 21:12 | 12.94107 | -61.12146 | 4930 ft | 271 kts | 235° |
| 2026-05-07 21:12 | 12.93461 | -61.13931 | 4559 ft | 268 kts | 266° |
| 2026-05-07 21:13 | 12.93782 | -61.15783 | 4189 ft | 263 kts | 298° |
| 2026-05-07 21:13 | 12.94950 | -61.17168 | 3826 ft | 257 kts | 329° |
| 2026-05-07 21:13 | 12.96609 | -61.17699 | 3448 ft | 250 kts | 1° |
| 2026-05-07 21:13 | 12.98232 | -61.17226 | 3221 ft | 240 kts | 32° |
| 2026-05-07 21:14 | 12.99654 | -61.16376 | 3109 ft | 234 kts | 31° |
| 2026-05-07 21:14 | 13.01070 | -61.15601 | 3057 ft | 228 kts | 29° |
| 2026-05-07 21:14 | 13.02483 | -61.14946 | 3025 ft | 223 kts | 24° |
| 2026-05-07 21:14 | 13.03961 | -61.14507 | 2957 ft | 223 kts | 8° |
| 2026-05-07 21:15 | 13.05495 | -61.14907 | 2699 ft | 239 kts | 330° |
| 2026-05-07 21:15 | 13.06599 | -61.16183 | 2430 ft | 234 kts | 301° |
| 2026-05-07 21:15 | 13.07463 | -61.17362 | 2198 ft | 188 kts | 332° |
| 2026-05-07 21:15 | 13.08589 | -61.17586 | 2098 ft | 153 kts | 14° |
| 2026-05-07 21:16 | 13.09596 | -61.17378 | 1912 ft | 147 kts | 17° |
| 2026-05-07 21:16 | 13.10552 | -61.17105 | 1521 ft | 143 kts | 23° |
| 2026-05-07 21:16 | 13.11492 | -61.16724 | 1018 ft | 143 kts | 27° |
| 2026-05-07 21:16 | 13.12331 | -61.16336 | 732 ft | 125 kts | 27° |
| 2026-05-07 21:17 | 13.13125 | -61.16046 | 531 ft | 115 kts | 28° |
| 2026-05-07 21:17 | 13.13843 | -61.15725 | 348 ft | 112 kts | 20° |
| 2026-05-07 21:17 | 13.14549 | -61.15447 | 178 ft | 103 kts | 24° |
| 2026-05-07 21:17 | 13.15198 | -61.15187 | 97 ft | 95 kts | 21° |
| 2026-05-07 21:18 | 13.15685 | -61.14994 | 87 ft | 35 kts | 20° |
| 2026-05-07 21:18 | 13.15897 | -61.14912 | 87 ft | 27 kts | 21° |
| 2026-05-07 21:18 | 13.15983 | -61.14902 | 88 ft | 10 kts | 308° |
| 2026-05-07 21:18 | 13.16014 | -61.14966 | 87 ft | 8 kts | 291° |
| 2026-05-07 21:19 | 13.16019 | -61.14982 | 87 ft | 0 kts | 290° |
| 2026-05-07 21:19 | 13.16020 | -61.14985 | 86 ft | 3 kts | 289° |
| 2026-05-07 21:19 | 13.16033 | -61.15024 | 85 ft | 8 kts | 290° |
| 2026-05-07 21:20 | 13.16063 | -61.15081 | 85 ft | 10 kts | 309° |
| 2026-05-07 21:20 | 13.16110 | -61.15095 | 87 ft | 5 kts | 11° |
| 2026-05-07 21:20 | 13.16132 | -61.15089 | 87 ft | 2 kts | 17° |
| 2026-05-07 21:20 | 13.16143 | -61.15086 | 85 ft | 2 kts | 22° |
| 2026-05-07 21:21 | 13.16151 | -61.15082 | 85 ft | 1 kts | 22° |
| 2026-05-07 21:21 | 13.16155 | -61.15081 | 86 ft | 3 kts | 21° |
| 2026-05-07 21:21 | 13.16163 | -61.15077 | 87 ft | 0 kts | 22° |